VIAR/ATQ METAR and TAF weather

Enter ICAO airport designator
Station Type Date Time Source
VIAR METAR 2020/11/28 20:30 UTC NOAA

VIAR 282030Z 00000KT 3000 BR SCT100 12/08 Q1017 NOSIG


Station Type Date Time Source
VIAR Decoded METAR 2020/11/28 20:30 UTC NOAA

Amritsar, India (VIAR) 31-38N 074-52E 234M
Nov 28, 2020 - 03:30 PM EST / 2020.11.28 2030 UTC
Wind: Calm:0
Visibility: 1 mile(s):0
Sky conditions: partly cloudy
Weather: mist
Temperature: 53 F (12 C)
Dew Point: 46 F (8 C)
Relative Humidity: 76%
Pressure (altimeter): 30.03 in. Hg (1017 hPa)
ob: VIAR 282030Z 00000KT 3000 BR SCT100 12/08 Q1017 NOSIG
cycle: 20

Station Type Date Time Source
VIAR TAF 2020/11/28 18:18 UTC NOAA

TAF TAF VIAR 281700Z 2818/2924 00000KT 3000 BR FEW100
BECMG 2900/2902 2000 BR FEW040 SCT100
BECMG 2903/2905 VRB02KT 3000 HZ
BECMG 2907/2909 04006KT 4500 HZ
BECMG 2913/2915 00000KT 2500 HZ BR FEW100

Example: see airport list